Delta Virtual Airport Information Service

Kingston Norman Manley International Airport

ICAO: MKJP Country: Jamaica
Latitude: 17.9357 Longitude: -76.7875
Latest Arrival : DAL4948761 (TNCA-MKJP) Latest Departure : DAL681862 (MKJP-KATL)


WX CaptureLIVE
Data provided by noaa.gov | Fetched at 12:17:06

METAR : MKJP 241700Z 14019KT 9999 FEW018 30/26 Q1011

TAF : MKJP 241115Z 2412/2512 14015KT 9999 FEW014 FEW016CB BKN070 TEMPO 2417/2422 2000 TSRA SQ BKN012 BKN014CB


Runway Data for MKJP
Data provided by openaviationdata.com

Runway ID Mag Var Hdg Length Elevation Surface ILS Freq ILS Id ILS Slope
12 -6 118° 8910 ft 10 ft Asphalt 109.1 IMLY 3
30 -6 298° 8910 ft 10 ft Asphalt -- -- --

Kingston Norman Manley International Airport, Jamaica
Use only for reference purposes



Not for navigational purposes.